sensor_id;sensor_type;location;lat;lon;timestamp;pressure;altitude;pressure_sealevel;temperature;humidity
46408;BME280;32110;45.724;21.276;2024-03-22T00:00:03;100814.81;;;5.93;nan
46408;BME280;32110;45.724;21.276;2024-03-22T00:02:29;100821.03;;;5.92;nan
46408;BME280;32110;45.724;21.276;2024-03-22T00:04:55;100815.56;;;5.87;nan
46408;BME280;32110;45.724;21.276;2024-03-22T00:07:20;100802.41;;;5.81;nan
46408;BME280;32110;45.724;21.276;2024-03-22T00:09:46;100806.44;;;5.83;nan
46408;BME280;32110;45.724;21.276;2024-03-22T00:12:11;100803.03;;;5.83;nan
46408;BME280;32110;45.724;21.276;2024-03-22T00:14:37;100790.44;;;5.71;nan
46408;BME280;32110;45.724;21.276;2024-03-22T00:17:02;100794.94;;;5.78;nan
46408;BME280;32110;45.724;21.276;2024-03-22T00:19:28;100798.53;;;5.76;nan
46408;BME280;32110;45.724;21.276;2024-03-22T00:21:53;100786.75;;;5.66;nan
46408;BME280;32110;45.724;21.276;2024-03-22T00:24:19;100795.41;;;5.66;nan
46408;BME280;32110;45.724;21.276;2024-03-22T00:26:44;100790.88;;;5.60;nan
46408;BME280;32110;45.724;21.276;2024-03-22T00:29:10;100801.00;;;5.63;nan
46408;BME280;32110;45.724;21.276;2024-03-22T00:31:35;100797.75;;;5.61;nan
46408;BME280;32110;45.724;21.276;2024-03-22T00:34:01;100804.97;;;5.59;nan
46408;BME280;32110;45.724;21.276;2024-03-22T00:36:26;100746.00;;;5.20;nan
46408;BME280;32110;45.724;21.276;2024-03-22T00:38:52;100797.03;;;5.52;nan
46408;BME280;32110;45.724;21.276;2024-03-22T00:41:17;100805.66;;;5.53;nan
46408;BME280;32110;45.724;21.276;2024-03-22T01:34:40;100799.94;;;4.37;nan
46408;BME280;32110;45.724;21.276;2024-03-22T01:37:06;100805.34;;;4.36;nan
46408;BME280;32110;45.724;21.276;2024-03-22T01:39:32;100766.91;;;4.07;nan
46408;BME280;32110;45.724;21.276;2024-03-22T01:41:57;100793.84;;;4.22;nan
46408;BME280;32110;45.724;21.276;2024-03-22T01:44:31;100802.47;;;4.22;nan
46408;BME280;32110;45.724;21.276;2024-03-22T01:46:58;100791.28;;;4.14;nan
46408;BME280;32110;45.724;21.276;2024-03-22T01:49:25;100801.03;;;4.20;nan
46408;BME280;32110;45.724;21.276;2024-03-22T01:51:52;100796.97;;;4.17;nan
46408;BME280;32110;45.724;21.276;2024-03-22T01:54:19;100799.94;;;4.14;nan
46408;BME280;32110;45.724;21.276;2024-03-22T01:56:45;100800.56;;;4.16;nan
46408;BME280;32110;45.724;21.276;2024-03-22T01:59:12;100774.91;;;4.05;nan
46408;BME280;32110;45.724;21.276;2024-03-22T02:01:38;100805.59;;;4.18;nan
46408;BME280;32110;45.724;21.276;2024-03-22T02:04:03;100781.72;;;4.06;nan
46408;BME280;32110;45.724;21.276;2024-03-22T02:06:29;100787.44;;;4.10;nan
46408;BME280;32110;45.724;21.276;2024-03-22T02:08:56;100765.16;;;3.99;nan
46408;BME280;32110;45.724;21.276;2024-03-22T02:11:22;100774.72;;;4.07;nan
46408;BME280;32110;45.724;21.276;2024-03-22T02:13:48;100787.06;;;4.13;nan
46408;BME280;32110;45.724;21.276;2024-03-22T02:16:13;100791.56;;;4.19;nan
46408;BME280;32110;45.724;21.276;2024-03-22T02:18:39;100793.84;;;4.22;nan
46408;BME280;32110;45.724;21.276;2024-03-22T02:21:04;100791.41;;;4.20;nan
46408;BME280;32110;45.724;21.276;2024-03-22T02:23:38;100792.56;;;4.18;nan
46408;BME280;32110;45.724;21.276;2024-03-22T02:26:04;100779.91;;;4.15;nan
46408;BME280;32110;45.724;21.276;2024-03-22T02:28:31;100797.78;;;4.18;nan
46408;BME280;32110;45.724;21.276;2024-03-22T02:30:58;100793.56;;;4.17;nan
46408;BME280;32110;45.724;21.276;2024-03-22T02:33:23;100787.34;;;4.18;nan
46408;BME280;32110;45.724;21.276;2024-03-22T02:35:50;100790.78;;;4.18;nan
46408;BME280;32110;45.724;21.276;2024-03-22T02:38:16;100791.94;;;4.16;nan
46408;BME280;32110;45.724;21.276;2024-03-22T02:40:46;100779.59;;;4.10;nan
46408;BME280;32110;45.724;21.276;2024-03-22T02:43:12;100794.19;;;4.19;nan
46408;BME280;32110;45.724;21.276;2024-03-22T02:45:38;100784.63;;;4.11;nan
46408;BME280;32110;45.724;21.276;2024-03-22T02:48:04;100788.00;;;4.20;nan
46408;BME280;32110;45.724;21.276;2024-03-22T02:50:34;100790.78;;;4.18;nan
46408;BME280;32110;45.724;21.276;2024-03-22T02:52:59;100768.34;;;4.09;nan
46408;BME280;32110;45.724;21.276;2024-03-22T02:55:25;100797.28;;;4.22;nan
46408;BME280;32110;45.724;21.276;2024-03-22T02:57:50;100795.47;;;4.23;nan
46408;BME280;32110;45.724;21.276;2024-03-22T03:00:16;100785.91;;;4.15;nan
46408;BME280;32110;45.724;21.276;2024-03-22T03:02:41;100799.59;;;4.17;nan
46408;BME280;32110;45.724;21.276;2024-03-22T03:05:07;100809.81;;;4.19;nan
46408;BME280;32110;45.724;21.276;2024-03-22T03:07:34;100790.19;;;4.08;nan
46408;BME280;32110;45.724;21.276;2024-03-22T03:09:59;100792.16;;;4.06;nan
46408;BME280;32110;45.724;21.276;2024-03-22T03:12:25;100787.28;;;4.03;nan
46408;BME280;32110;45.724;21.276;2024-03-22T03:14:50;100789.25;;;4.01;nan
46408;BME280;32110;45.724;21.276;2024-03-22T03:17:16;100799.31;;;4.04;nan
46408;BME280;32110;45.724;21.276;2024-03-22T03:19:41;100797.59;;;3.96;nan
46408;BME280;32110;45.724;21.276;2024-03-22T03:22:07;100799.53;;;3.94;nan
46408;BME280;32110;45.724;21.276;2024-03-22T03:24:32;100805.06;;;3.99;nan
46408;BME280;32110;45.724;21.276;2024-03-22T03:26:58;100810.97;;;3.93;nan
46408;BME280;32110;45.724;21.276;2024-03-22T03:29:23;100797.16;;;3.84;nan
46408;BME280;32110;45.724;21.276;2024-03-22T03:31:49;100808.53;;;3.92;nan
46408;BME280;32110;45.724;21.276;2024-03-22T03:34:14;100806.47;;;3.79;nan
46408;BME280;32110;45.724;21.276;2024-03-22T03:36:40;100811.69;;;3.79;nan
46408;BME280;32110;45.724;21.276;2024-03-22T03:39:05;100820.31;;;3.79;nan
46408;BME280;32110;45.724;21.276;2024-03-22T03:41:31;100815.44;;;3.76;nan
46408;BME280;32110;45.724;21.276;2024-03-22T03:43:56;100812.34;;;3.73;nan
46408;BME280;32110;45.724;21.276;2024-03-22T03:46:22;100785.09;;;3.52;nan
46408;BME280;32110;45.724;21.276;2024-03-22T03:48:48;100814.50;;;3.61;nan
46408;BME280;32110;45.724;21.276;2024-03-22T03:51:13;100810.16;;;3.53;nan
46408;BME280;32110;45.724;21.276;2024-03-22T03:53:39;100805.94;;;3.52;nan
46408;BME280;32110;45.724;21.276;2024-03-22T03:56:04;100810.66;;;3.49;nan
46408;BME280;32110;45.724;21.276;2024-03-22T03:58:30;100819.13;;;3.51;nan
46408;BME280;32110;45.724;21.276;2024-03-22T04:00:55;100821.25;;;3.47;nan
46408;BME280;32110;45.724;21.276;2024-03-22T04:03:21;100802.09;;;3.40;nan
46408;BME280;32110;45.724;21.276;2024-03-22T04:05:46;100812.63;;;3.47;nan
46408;BME280;32110;45.724;21.276;2024-03-22T04:08:12;100819.78;;;3.45;nan
46408;BME280;32110;45.724;21.276;2024-03-22T04:10:37;100813.16;;;3.34;nan
46408;BME280;32110;45.724;21.276;2024-03-22T04:13:03;100817.22;;;3.36;nan
46408;BME280;32110;45.724;21.276;2024-03-22T04:15:28;100826.31;;;3.40;nan
46408;BME280;32110;45.724;21.276;2024-03-22T04:17:56;100827.63;;;3.36;nan
46408;BME280;32110;45.724;21.276;2024-03-22T04:20:22;100818.69;;;3.31;nan
46408;BME280;32110;45.724;21.276;2024-03-22T04:22:47;100837.56;;;3.33;nan
46408;BME280;32110;45.724;21.276;2024-03-22T04:25:15;100836.91;;;3.31;nan
46408;BME280;32110;45.724;21.276;2024-03-22T04:27:40;100789.16;;;2.99;nan
46408;BME280;32110;45.724;21.276;2024-03-22T04:30:06;100839.53;;;3.31;nan
46408;BME280;32110;45.724;21.276;2024-03-22T04:32:31;100839.53;;;3.31;nan
46408;BME280;32110;45.724;21.276;2024-03-22T04:34:57;100847.47;;;3.29;nan
46408;BME280;32110;45.724;21.276;2024-03-22T04:37:22;100832.06;;;3.19;nan
46408;BME280;32110;45.724;21.276;2024-03-22T04:39:49;100844.03;;;3.37;nan
46408;BME280;32110;45.724;21.276;2024-03-22T06:22:00;100897.31;;;4.53;nan
46408;BME280;32110;45.724;21.276;2024-03-22T06:24:25;100897.53;;;4.66;nan
46408;BME280;32110;45.724;21.276;2024-03-22T06:26:51;100886.13;;;4.67;nan
46408;BME280;32110;45.724;21.276;2024-03-22T06:29:16;100901.31;;;4.86;nan
46408;BME280;32110;45.724;21.276;2024-03-22T06:31:42;100897.81;;;4.94;nan
46408;BME280;32110;45.724;21.276;2024-03-22T06:34:08;100882.97;;;4.95;nan
46408;BME280;32110;45.724;21.276;2024-03-22T06:36:33;100885.88;;;5.15;nan
46408;BME280;32110;45.724;21.276;2024-03-22T06:38:59;100877.53;;;5.19;nan
46408;BME280;32110;45.724;21.276;2024-03-22T06:41:25;100891.69;;;5.40;nan
46408;BME280;32110;45.724;21.276;2024-03-22T06:43:51;100901.25;;;5.47;nan
46408;BME280;32110;45.724;21.276;2024-03-22T06:46:17;100902.16;;;5.54;nan
46408;BME280;32110;45.724;21.276;2024-03-22T06:48:43;100874.44;;;5.53;nan
46408;BME280;32110;45.724;21.276;2024-03-22T06:51:08;100898.47;;;5.79;nan
46408;BME280;32110;45.724;21.276;2024-03-22T06:53:34;100904.22;;;5.89;nan
46408;BME280;32110;45.724;21.276;2024-03-22T06:55:59;100889.00;;;5.92;nan
46408;BME280;32110;45.724;21.276;2024-03-22T06:58:25;100883.34;;;6.04;nan
46408;BME280;32110;45.724;21.276;2024-03-22T07:00:50;100888.28;;;6.13;nan
46408;BME280;32110;45.724;21.276;2024-03-22T07:03:16;100891.22;;;6.25;nan
46408;BME280;32110;45.724;21.276;2024-03-22T07:05:42;100892.72;;;6.34;nan
46408;BME280;32110;45.724;21.276;2024-03-22T07:08:08;100895.66;;;6.46;nan
46408;BME280;32110;45.724;21.276;2024-03-22T07:10:38;100890.09;;;6.49;nan
46408;BME280;32110;45.724;21.276;2024-03-22T07:13:05;100850.31;;;6.39;nan
46408;BME280;32110;45.724;21.276;2024-03-22T07:15:30;100887.22;;;6.66;nan
46408;BME280;32110;45.724;21.276;2024-03-22T07:17:57;100895.19;;;6.79;nan
46408;BME280;32110;45.724;21.276;2024-03-22T07:20:23;100904.72;;;6.87;nan
46408;BME280;32110;45.724;21.276;2024-03-22T07:22:49;100897.94;;;6.92;nan
46408;BME280;32110;45.724;21.276;2024-03-22T07:25:14;100887.72;;;6.97;nan
46408;BME280;32110;45.724;21.276;2024-03-22T07:27:39;100896.03;;;7.08;nan
46408;BME280;32110;45.724;21.276;2024-03-22T07:30:05;100894.72;;;7.18;nan
46408;BME280;32110;45.724;21.276;2024-03-22T07:32:31;100886.28;;;7.23;nan
46408;BME280;32110;45.724;21.276;2024-03-22T07:34:59;100898.91;;;7.41;nan
46408;BME280;32110;45.724;21.276;2024-03-22T07:37:25;100891.91;;;7.48;nan
46408;BME280;32110;45.724;21.276;2024-03-22T07:39:50;100873.97;;;7.52;nan
46408;BME280;32110;45.724;21.276;2024-03-22T07:42:16;100897.47;;;7.73;nan
46408;BME280;32110;45.724;21.276;2024-03-22T07:44:42;100893.06;;;7.80;nan
46408;BME280;32110;45.724;21.276;2024-03-22T07:47:07;100895.16;;;7.92;nan
46408;BME280;32110;45.724;21.276;2024-03-22T07:49:33;100897.44;;;8.08;nan
46408;BME280;32110;45.724;21.276;2024-03-22T07:52:00;100895.69;;;8.22;nan
46408;BME280;32110;45.724;21.276;2024-03-22T07:54:25;100895.50;;;8.30;nan
46408;BME280;32110;45.724;21.276;2024-03-22T07:56:51;100900.03;;;8.43;nan
46408;BME280;32110;45.724;21.276;2024-03-22T07:59:17;100890.34;;;8.50;nan
46408;BME280;32110;45.724;21.276;2024-03-22T08:01:42;100900.06;;;8.63;nan
46408;BME280;32110;45.724;21.276;2024-03-22T08:04:08;100904.91;;;8.86;nan
46408;BME280;32110;45.724;21.276;2024-03-22T08:06:33;100884.13;;;8.91;nan
46408;BME280;32110;45.724;21.276;2024-03-22T08:08:59;100894.22;;;9.07;nan
46408;BME280;32110;45.724;21.276;2024-03-22T08:11:26;100889.75;;;9.14;nan
46408;BME280;32110;45.724;21.276;2024-03-22T08:13:52;100893.00;;;9.30;nan
46408;BME280;32110;45.724;21.276;2024-03-22T08:16:18;100896.63;;;9.42;nan
46408;BME280;32110;45.724;21.276;2024-03-22T08:18:44;100899.00;;;9.57;nan
46408;BME280;32110;45.724;21.276;2024-03-22T08:21:10;100912.31;;;9.75;nan
46408;BME280;32110;45.724;21.276;2024-03-22T08:23:35;100901.19;;;9.80;nan
46408;BME280;32110;45.724;21.276;2024-03-22T08:26:01;100919.75;;;9.98;nan
46408;BME280;32110;45.724;21.276;2024-03-22T08:28:27;100912.84;;;10.04;nan
46408;BME280;32110;45.724;21.276;2024-03-22T08:30:53;100876.63;;;9.99;nan
46408;BME280;32110;45.724;21.276;2024-03-22T08:33:18;100912.56;;;10.32;nan
46408;BME280;32110;45.724;21.276;2024-03-22T08:35:44;100901.16;;;10.38;nan
46408;BME280;32110;45.724;21.276;2024-03-22T08:38:10;100897.25;;;10.48;nan
46408;BME280;32110;45.724;21.276;2024-03-22T08:40:37;100897.59;;;10.58;nan
46408;BME280;32110;45.724;21.276;2024-03-22T08:43:03;100897.69;;;10.76;nan
46408;BME280;32110;45.724;21.276;2024-03-22T08:45:32;100889.50;;;10.84;nan
46408;BME280;32110;45.724;21.276;2024-03-22T08:47:58;100908.03;;;11.03;nan
46408;BME280;32110;45.724;21.276;2024-03-22T08:50:23;100906.16;;;11.10;nan
46408;BME280;32110;45.724;21.276;2024-03-22T08:52:50;100895.75;;;11.15;nan
46408;BME280;32110;45.724;21.276;2024-03-22T08:55:15;100910.22;;;11.31;nan
46408;BME280;32110;45.724;21.276;2024-03-22T08:57:41;100901.22;;;11.39;nan
46408;BME280;32110;45.724;21.276;2024-03-22T09:00:07;100905.03;;;11.43;nan
46408;BME280;32110;45.724;21.276;2024-03-22T09:02:33;100906.00;;;11.48;nan
46408;BME280;32110;45.724;21.276;2024-03-22T09:04:59;100886.16;;;11.46;nan
46408;BME280;32110;45.724;21.276;2024-03-22T09:07:25;100894.13;;;11.58;nan
46408;BME280;32110;45.724;21.276;2024-03-22T09:09:50;100888.66;;;11.59;nan
46408;BME280;32110;45.724;21.276;2024-03-22T09:12:16;100904.06;;;11.81;nan
46408;BME280;32110;45.724;21.276;2024-03-22T09:14:41;100892.47;;;11.82;nan
46408;BME280;32110;45.724;21.276;2024-03-22T09:17:07;100892.75;;;11.92;nan
46408;BME280;32110;45.724;21.276;2024-03-22T09:19:33;100892.03;;;12.03;nan
46408;BME280;32110;45.724;21.276;2024-03-22T09:21:58;100887.03;;;12.13;nan
46408;BME280;32110;45.724;21.276;2024-03-22T09:24:23;100888.69;;;12.26;nan
46408;BME280;32110;45.724;21.276;2024-03-22T09:26:49;100896.66;;;12.38;nan
46408;BME280;32110;45.724;21.276;2024-03-22T09:29:15;100880.38;;;12.41;nan
46408;BME280;32110;45.724;21.276;2024-03-22T09:31:40;100877.63;;;12.48;nan
46408;BME280;32110;45.724;21.276;2024-03-22T09:34:06;100877.09;;;12.58;nan
46408;BME280;32110;45.724;21.276;2024-03-22T09:36:31;100872.72;;;12.63;nan
46408;BME280;32110;45.724;21.276;2024-03-22T09:39:01;100889.19;;;12.77;nan
46408;BME280;32110;45.724;21.276;2024-03-22T09:41:26;100883.56;;;12.85;nan
46408;BME280;32110;45.724;21.276;2024-03-22T09:43:56;100884.72;;;12.89;nan
46408;BME280;32110;45.724;21.276;2024-03-22T09:46:23;100885.41;;;12.96;nan
46408;BME280;32110;45.724;21.276;2024-03-22T09:48:49;100887.59;;;13.11;nan
46408;BME280;32110;45.724;21.276;2024-03-22T09:51:17;100888.88;;;13.20;nan
46408;BME280;32110;45.724;21.276;2024-03-22T09:53:48;100883.50;;;13.27;nan
46408;BME280;32110;45.724;21.276;2024-03-22T09:56:14;100886.84;;;13.34;nan
46408;BME280;32110;45.724;21.276;2024-03-22T09:58:44;100882.13;;;13.36;nan
46408;BME280;32110;45.724;21.276;2024-03-22T10:01:09;100887.63;;;13.47;nan
46408;BME280;32110;45.724;21.276;2024-03-22T10:03:36;100877.03;;;13.47;nan
46408;BME280;32110;45.724;21.276;2024-03-22T10:06:02;100846.91;;;13.36;nan
46408;BME280;32110;45.724;21.276;2024-03-22T10:08:27;100883.00;;;13.66;nan
46408;BME280;32110;45.724;21.276;2024-03-22T10:10:53;100863.56;;;13.60;nan
46408;BME280;32110;45.724;21.276;2024-03-22T10:13:18;100873.41;;;13.76;nan
46408;BME280;32110;45.724;21.276;2024-03-22T10:15:44;100867.09;;;13.77;nan
46408;BME280;32110;45.724;21.276;2024-03-22T10:18:10;100873.72;;;13.92;nan
46408;BME280;32110;45.724;21.276;2024-03-22T10:20:35;100867.72;;;13.96;nan
46408;BME280;32110;45.724;21.276;2024-03-22T10:23:01;100867.91;;;14.07;nan
46408;BME280;32110;45.724;21.276;2024-03-22T10:25:27;100870.88;;;14.10;nan
46408;BME280;32110;45.724;21.276;2024-03-22T10:27:54;100854.53;;;14.13;nan
46408;BME280;32110;45.724;21.276;2024-03-22T10:30:21;100865.41;;;14.29;nan
46408;BME280;32110;45.724;21.276;2024-03-22T10:32:47;100859.16;;;14.35;nan
46408;BME280;32110;45.724;21.276;2024-03-22T10:35:14;100851.06;;;14.41;nan
46408;BME280;32110;45.724;21.276;2024-03-22T10:37:40;100864.97;;;14.49;nan
46408;BME280;32110;45.724;21.276;2024-03-22T10:40:06;100850.81;;;14.43;nan
46408;BME280;32110;45.724;21.276;2024-03-22T10:42:36;100847.78;;;14.51;nan
46408;BME280;32110;45.724;21.276;2024-03-22T10:45:06;100848.78;;;14.62;nan
46408;BME280;32110;45.724;21.276;2024-03-22T10:47:34;100843.53;;;14.67;nan
46408;BME280;32110;45.724;21.276;2024-03-22T10:50:10;100839.03;;;14.67;nan
46408;BME280;32110;45.724;21.276;2024-03-22T10:52:45;100830.94;;;14.74;nan
46408;BME280;32110;45.724;21.276;2024-03-22T10:57:42;100834.94;;;14.94;nan
46408;BME280;32110;45.724;21.276;2024-03-22T11:00:09;100813.91;;;14.87;nan
46408;BME280;32110;45.724;21.276;2024-03-22T11:02:37;100821.75;;;14.99;nan
46408;BME280;32110;45.724;21.276;2024-03-22T11:05:06;100823.66;;;15.03;nan
46408;BME280;32110;45.724;21.276;2024-03-22T11:07:32;100771.94;;;14.84;nan
46408;BME280;32110;45.724;21.276;2024-03-22T11:10:00;100816.09;;;15.12;nan
46408;BME280;32110;45.724;21.276;2024-03-22T11:12:28;100809.22;;;15.11;nan
46408;BME280;32110;45.724;21.276;2024-03-22T11:14:58;100805.16;;;15.25;nan
46408;BME280;32110;45.724;21.276;2024-03-22T11:17:24;100798.84;;;15.31;nan
46408;BME280;32110;45.724;21.276;2024-03-22T11:19:51;100803.66;;;15.35;nan
46408;BME280;32110;45.724;21.276;2024-03-22T11:22:17;100797.00;;;15.32;nan
46408;BME280;32110;45.724;21.276;2024-03-22T11:24:43;100796.94;;;15.27;nan
46408;BME280;32110;45.724;21.276;2024-03-22T11:27:09;100791.16;;;15.30;nan
46408;BME280;32110;45.724;21.276;2024-03-22T11:29:38;100790.66;;;15.33;nan
46408;BME280;32110;45.724;21.276;2024-03-22T11:32:06;100786.47;;;15.37;nan
46408;BME280;32110;45.724;21.276;2024-03-22T11:34:35;100791.56;;;15.44;nan
46408;BME280;32110;45.724;21.276;2024-03-22T11:37:00;100771.34;;;15.38;nan
46408;BME280;32110;45.724;21.276;2024-03-22T11:39:26;100770.03;;;15.40;nan
46408;BME280;32110;45.724;21.276;2024-03-22T11:41:51;100767.44;;;15.45;nan
46408;BME280;32110;45.724;21.276;2024-03-22T11:44:17;100763.31;;;15.55;nan
46408;BME280;32110;45.724;21.276;2024-03-22T11:46:44;100767.69;;;15.66;nan
46408;BME280;32110;45.724;21.276;2024-03-22T11:49:10;100778.28;;;15.66;nan
46408;BME280;32110;45.724;21.276;2024-03-22T11:51:36;100763.41;;;15.65;nan
46408;BME280;32110;45.724;21.276;2024-03-22T11:54:03;100749.63;;;15.68;nan
46408;BME280;32110;45.724;21.276;2024-03-22T11:56:28;100754.78;;;15.74;nan
46408;BME280;32110;45.724;21.276;2024-03-22T11:59:01;100741.81;;;15.78;nan
46408;BME280;32110;45.724;21.276;2024-03-22T12:01:29;100757.88;;;15.93;nan
46408;BME280;32110;45.724;21.276;2024-03-22T12:03:54;100738.19;;;15.89;nan
46408;BME280;32110;45.724;21.276;2024-03-22T12:06:21;100748.63;;;16.01;nan
46408;BME280;32110;45.724;21.276;2024-03-22T12:08:46;100739.09;;;16.00;nan
46408;BME280;32110;45.724;21.276;2024-03-22T12:11:13;100742.06;;;16.09;nan
46408;BME280;32110;45.724;21.276;2024-03-22T12:13:39;100745.31;;;16.16;nan
46408;BME280;32110;45.724;21.276;2024-03-22T12:16:05;100743.78;;;16.25;nan
46408;BME280;32110;45.724;21.276;2024-03-22T12:18:31;100746.28;;;16.37;nan
46408;BME280;32110;45.724;21.276;2024-03-22T12:20:57;100725.00;;;16.37;nan
46408;BME280;32110;45.724;21.276;2024-03-22T12:23:22;100727.97;;;16.41;nan
46408;BME280;32110;45.724;21.276;2024-03-22T12:25:50;100729.09;;;16.50;nan
46408;BME280;32110;45.724;21.276;2024-03-22T12:28:16;100731.22;;;16.48;nan
46408;BME280;32110;45.724;21.276;2024-03-22T12:30:42;100721.91;;;16.45;nan
46408;BME280;32110;45.724;21.276;2024-03-22T12:33:08;100729.09;;;16.50;nan
46408;BME280;32110;45.724;21.276;2024-03-22T12:35:36;100718.75;;;16.53;nan
46408;BME280;32110;45.724;21.276;2024-03-22T12:38:02;100713.66;;;16.52;nan
46408;BME280;32110;45.724;21.276;2024-03-22T12:40:29;100715.34;;;16.63;nan
46408;BME280;32110;45.724;21.276;2024-03-22T12:42:55;100719.09;;;16.67;nan
46408;BME280;32110;45.724;21.276;2024-03-22T12:45:21;100714.59;;;16.73;nan
46408;BME280;32110;45.724;21.276;2024-03-22T12:47:47;100720.78;;;16.78;nan
46408;BME280;32110;45.724;21.276;2024-03-22T12:50:12;100721.38;;;16.86;nan
46408;BME280;32110;45.724;21.276;2024-03-22T12:52:39;100706.75;;;16.88;nan
46408;BME280;32110;45.724;21.276;2024-03-22T12:55:05;100716.34;;;16.99;nan
46408;BME280;32110;45.724;21.276;2024-03-22T12:57:31;100708.91;;;17.01;nan
46408;BME280;32110;45.724;21.276;2024-03-22T12:59:57;100707.59;;;17.04;nan
46408;BME280;32110;45.724;21.276;2024-03-22T13:02:23;100706.00;;;17.08;nan
46408;BME280;32110;45.724;21.276;2024-03-22T13:04:51;100693.75;;;17.02;nan
46408;BME280;32110;45.724;21.276;2024-03-22T13:07:19;100688.72;;;17.06;nan
46408;BME280;32110;45.724;21.276;2024-03-22T13:09:44;100694.84;;;17.06;nan
46408;BME280;32110;45.724;21.276;2024-03-22T13:12:10;100691.63;;;17.04;nan
46408;BME280;32110;45.724;21.276;2024-03-22T13:14:35;100688.94;;;16.99;nan
46408;BME280;32110;45.724;21.276;2024-03-22T13:17:01;100697.22;;;17.03;nan
46408;BME280;32110;45.724;21.276;2024-03-22T13:19:27;100690.03;;;17.03;nan
46408;BME280;32110;45.724;21.276;2024-03-22T13:21:52;100686.31;;;17.04;nan
46408;BME280;32110;45.724;21.276;2024-03-22T13:24:18;100676.22;;;17.06;nan
46408;BME280;32110;45.724;21.276;2024-03-22T13:26:44;100671.97;;;17.05;nan
46408;BME280;32110;45.724;21.276;2024-03-22T13:29:10;100677.56;;;17.14;nan
46408;BME280;32110;45.724;21.276;2024-03-22T13:31:35;100668.28;;;17.21;nan
46408;BME280;32110;45.724;21.276;2024-03-22T13:34:01;100662.41;;;17.19;nan
46408;BME280;32110;45.724;21.276;2024-03-22T13:36:27;100670.97;;;17.32;nan
46408;BME280;32110;45.724;21.276;2024-03-22T13:38:53;100669.94;;;17.43;nan
46408;BME280;32110;45.724;21.276;2024-03-22T13:41:18;100650.75;;;17.36;nan
46408;BME280;32110;45.724;21.276;2024-03-22T13:43:44;100662.19;;;17.31;nan
46408;BME280;32110;45.724;21.276;2024-03-22T14:00:47;100652.03;;;17.13;nan
46408;BME280;32110;45.724;21.276;2024-03-22T14:03:13;100651.72;;;17.04;nan
46408;BME280;32110;45.724;21.276;2024-03-22T14:05:38;100640.84;;;17.11;nan
46408;BME280;32110;45.724;21.276;2024-03-22T14:08:04;100625.94;;;17.10;nan
46408;BME280;32110;45.724;21.276;2024-03-22T14:10:30;100643.00;;;17.24;nan
46408;BME280;32110;45.724;21.276;2024-03-22T14:12:58;100649.94;;;17.35;nan
46408;BME280;32110;45.724;21.276;2024-03-22T14:15:24;100647.00;;;17.32;nan
46408;BME280;32110;45.724;21.276;2024-03-22T14:17:52;100640.59;;;17.33;nan
46408;BME280;32110;45.724;21.276;2024-03-22T14:20:17;100641.94;;;17.40;nan
46408;BME280;32110;45.724;21.276;2024-03-22T14:22:44;100636.38;;;17.42;nan
46408;BME280;32110;45.724;21.276;2024-03-22T14:25:10;100629.16;;;17.37;nan
46408;BME280;32110;45.724;21.276;2024-03-22T14:27:36;100629.72;;;17.44;nan
46408;BME280;32110;45.724;21.276;2024-03-22T14:30:03;100626.00;;;17.46;nan
46408;BME280;32110;45.724;21.276;2024-03-22T14:32:31;100627.34;;;17.48;nan
46408;BME280;32110;45.724;21.276;2024-03-22T14:34:57;100619.34;;;17.43;nan
46408;BME280;32110;45.724;21.276;2024-03-22T14:37:22;100606.28;;;17.41;nan
46408;BME280;32110;45.724;21.276;2024-03-22T15:35:38;100597.03;;;16.71;nan
46408;BME280;32110;45.724;21.276;2024-03-22T16:53:22;100570.34;;;15.55;nan
46408;BME280;32110;45.724;21.276;2024-03-22T18:11:01;100593.00;;;14.03;nan
